Time;durP1;ratioP1;P1;durP2;ratioP2;P2;SDS_P1;SDS_P2;PMS_P1;PMS_P2;Temp;Humidity;BMP_temperature;BMP_pressure;BME280_temperature;BME280_humidity;BME280_pressure;Samples;Min_cycle;Max_cycle;Signal;HPM_P1;HPM_P2
2022/04/30 00:00:58;;;;;;;7.17;5.43;;;;;;;;;;4965140;28;20178;-37
2022/04/30 00:03:26;;;;;;;6.03;4.90;;;;;;;;;;4962485;28;20250;-36
2022/04/30 00:05:53;;;;;;;6.33;4.87;;;;;;;;;;4966391;28;20734;-37
2022/04/30 00:08:19;;;;;;;6.40;4.67;;;;;;;;;;4962846;28;20496;-36
2022/04/30 00:10:45;;;;;;;7.53;5.10;;;;;;;;;;4963653;28;20627;-37
2022/04/30 00:13:11;;;;;;;6.87;5.00;;;;;;;;;;4962187;28;20953;-36
2022/04/30 00:15:37;;;;;;;7.47;4.80;;;;;;;;;;4967261;28;20173;-36
2022/04/30 00:18:04;;;;;;;6.23;5.30;;;;;;;;;;4965626;28;20311;-36
2022/04/30 00:20:32;;;;;;;7.37;5.07;;;;;;;;;;4964220;28;20603;-36
2022/04/30 00:22:58;;;;;;;9.87;4.80;;;;;;;;;;4968689;28;20177;-36
2022/04/30 00:25:24;;;;;;;6.47;5.30;;;;;;;;;;4967319;28;20562;-37
2022/04/30 00:27:51;;;;;;;7.50;4.83;;;;;;;;;;4965399;28;20958;-36
2022/04/30 00:30:17;;;;;;;10.60;5.30;;;;;;;;;;4965799;28;20601;-36
2022/04/30 00:32:44;;;;;;;7.00;5.00;;;;;;;;;;4965622;28;20574;-36
2022/04/30 00:35:10;;;;;;;7.23;4.83;;;;;;;;;;4962881;28;20174;-37
2022/04/30 00:37:36;;;;;;;7.60;5.27;;;;;;;;;;4961179;28;20220;-36
2022/04/30 00:40:02;;;;;;;5.83;4.63;;;;;;;;;;4964138;28;20880;-36
2022/04/30 00:42:28;;;;;;;8.43;5.07;;;;;;;;;;4966520;28;20173;-37
2022/04/30 00:44:55;;;;;;;8.33;5.03;;;;;;;;;;4977192;28;20741;-37
2022/04/30 00:47:21;;;;;;;8.23;4.93;;;;;;;;;;4966399;28;20225;-36
2022/04/30 00:49:47;;;;;;;5.90;5.07;;;;;;;;;;4965306;28;21368;-36
2022/04/30 00:52:15;;;;;;;8.40;5.27;;;;;;;;;;4961061;28;21615;-37
2022/04/30 00:54:42;;;;;;;7.97;5.03;;;;;;;;;;4965348;28;20293;-37
2022/04/30 00:57:13;;;;;;;10.20;5.97;;;;;;;;;;4967032;28;20210;-37
2022/04/30 00:59:40;;;;;;;7.07;4.90;;;;;;;;;;4967372;28;20216;-37
2022/04/30 01:02:09;;;;;;;7.37;4.83;;;;;;;;;;4966350;28;20936;-37
2022/04/30 01:04:35;;;;;;;7.27;5.17;;;;;;;;;;4982128;28;20185;-37
2022/04/30 01:07:08;;;;;;;8.53;5.23;;;;;;;;;;4964543;28;20209;-37
2022/04/30 01:09:37;;;;;;;8.73;5.10;;;;;;;;;;4966148;28;20251;-37
2022/04/30 01:12:06;;;;;;;9.07;5.13;;;;;;;;;;4961109;28;20177;-37
2022/04/30 01:14:32;;;;;;;5.83;4.33;;;;;;;;;;4966233;28;20165;-37
2022/04/30 01:17:05;;;;;;;9.67;5.20;;;;;;;;;;4966037;28;20252;-37
2022/04/30 01:19:34;;;;;;;9.40;5.23;;;;;;;;;;4960003;28;20181;-37
2022/04/30 01:22:08;;;;;;;5.80;4.93;;;;;;;;;;4964779;28;20189;-36
2022/04/30 01:24:35;;;;;;;6.10;4.70;;;;;;;;;;4958734;28;21057;-37
2022/04/30 01:27:02;;;;;;;6.90;4.90;;;;;;;;;;4959058;28;20197;-36
2022/04/30 01:29:33;;;;;;;6.47;4.73;;;;;;;;;;4966311;28;20177;-37
2022/04/30 01:37:36;;;;;;;6.93;4.93;;;;;;;;;;4963589;28;20208;-37
2022/04/30 01:40:06;;;;;;;9.63;5.60;;;;;;;;;;4965394;28;20626;-37
2022/04/30 01:42:36;;;;;;;7.97;5.13;;;;;;;;;;4965535;28;20178;-36
2022/04/30 01:45:04;;;;;;;5.40;4.87;;;;;;;;;;4965516;28;20181;-37
2022/04/30 01:47:31;;;;;;;7.80;5.50;;;;;;;;;;4966420;28;21198;-37
2022/04/30 01:49:57;;;;;;;8.43;5.00;;;;;;;;;;4963086;28;20192;-36
2022/04/30 01:52:23;;;;;;;9.10;5.30;;;;;;;;;;4964381;28;20282;-37
2022/04/30 01:54:49;;;;;;;9.97;5.70;;;;;;;;;;4965435;28;20206;-36
2022/04/30 01:57:23;;;;;;;11.70;6.60;;;;;;;;;;4965594;28;20182;-37
2022/04/30 01:59:51;;;;;;;10.67;7.47;;;;;;;;;;4965848;28;21081;-37
2022/04/30 02:02:17;;;;;;;9.47;7.20;;;;;;;;;;4963957;28;20206;-37
2022/04/30 02:04:43;;;;;;;15.60;7.80;;;;;;;;;;4965255;28;21055;-37
2022/04/30 02:07:10;;;;;;;13.00;8.33;;;;;;;;;;4960593;28;20452;-36
2022/04/30 02:09:36;;;;;;;12.63;8.40;;;;;;;;;;4961437;28;21076;-36
2022/04/30 02:12:02;;;;;;;9.60;7.40;;;;;;;;;;4963345;28;20161;-37
2022/04/30 02:14:33;;;;;;;11.07;8.27;;;;;;;;;;4963064;28;21011;-37
2022/04/30 02:16:59;;;;;;;12.03;8.87;;;;;;;;;;4963819;28;20425;-36
2022/04/30 02:19:28;;;;;;;11.53;8.07;;;;;;;;;;4963634;28;20281;-37
2022/04/30 02:21:57;;;;;;;17.80;8.53;;;;;;;;;;4960965;28;20244;-37
2022/04/30 02:24:24;;;;;;;13.70;8.30;;;;;;;;;;4964346;28;20483;-36
2022/04/30 02:26:50;;;;;;;13.03;8.43;;;;;;;;;;4966645;28;20185;-37
2022/04/30 02:29:16;;;;;;;12.37;8.70;;;;;;;;;;4964386;28;20185;-37
2022/04/30 02:31:42;;;;;;;13.87;9.07;;;;;;;;;;4962264;28;21006;-37
2022/04/30 02:34:08;;;;;;;12.17;8.77;;;;;;;;;;4966173;28;20424;-36
2022/04/30 02:36:34;;;;;;;13.30;8.90;;;;;;;;;;4962646;28;20249;-36
2022/04/30 02:39:02;;;;;;;12.30;8.33;;;;;;;;;;4962915;28;20436;-37
2022/04/30 02:41:29;;;;;;;13.40;9.00;;;;;;;;;;4967059;28;20540;-37
2022/04/30 02:43:56;;;;;;;12.63;8.70;;;;;;;;;;4965928;28;20546;-37
2022/04/30 02:46:22;;;;;;;12.63;9.17;;;;;;;;;;4964440;28;21411;-37
2022/04/30 02:48:48;;;;;;;12.63;8.67;;;;;;;;;;4959840;28;21145;-36
2022/04/30 02:51:15;;;;;;;12.83;9.20;;;;;;;;;;4961757;28;20174;-37
2022/04/30 02:53:42;;;;;;;14.83;9.60;;;;;;;;;;4967163;28;20420;-37
2022/04/30 02:56:11;;;;;;;13.80;9.53;;;;;;;;;;4963904;28;20180;-37
2022/04/30 03:01:22;;;;;;;13.07;8.60;;;;;;;;;;4964108;28;20192;-36
2022/04/30 03:03:48;;;;;;;10.00;7.97;;;;;;;;;;4963542;28;20212;-37
2022/04/30 03:06:17;;;;;;;10.87;7.73;;;;;;;;;;4962920;28;20198;-37
2022/04/30 03:08:46;;;;;;;10.10;8.17;;;;;;;;;;4961546;28;21196;-37
2022/04/30 03:11:13;;;;;;;12.20;7.97;;;;;;;;;;4984675;28;20276;-37
2022/04/30 03:13:40;;;;;;;13.03;8.07;;;;;;;;;;4964360;28;20995;-37
2022/04/30 03:21:47;;;;;;;13.47;9.03;;;;;;;;;;4961462;28;20275;-37
2022/04/30 03:24:15;;;;;;;12.27;8.80;;;;;;;;;;4962693;28;20435;-36
2022/04/30 03:26:43;;;;;;;10.50;8.13;;;;;;;;;;4964666;28;20455;-36
2022/04/30 03:29:09;;;;;;;11.50;8.83;;;;;;;;;;4964515;28;20926;-37
2022/04/30 03:31:35;;;;;;;11.60;8.23;;;;;;;;;;4966880;28;20182;-37
2022/04/30 03:34:01;;;;;;;11.93;7.70;;;;;;;;;;4962951;28;20182;-37
2022/04/30 03:36:29;;;;;;;15.20;7.93;;;;;;;;;;4966620;28;20432;-37
2022/04/30 03:38:55;;;;;;;10.97;8.13;;;;;;;;;;4963399;28;20678;-37
2022/04/30 03:41:21;;;;;;;12.70;7.63;;;;;;;;;;4958642;28;20221;-36
2022/04/30 03:43:48;;;;;;;11.87;7.47;;;;;;;;;;4970643;28;20186;-37
2022/04/30 03:46:14;;;;;;;12.43;7.40;;;;;;;;;;4967922;28;20456;-37
2022/04/30 03:48:40;;;;;;;10.17;7.37;;;;;;;;;;4967155;28;21156;-37
2022/04/30 03:51:06;;;;;;;13.40;7.50;;;;;;;;;;4966639;28;20366;-37
2022/04/30 03:53:33;;;;;;;10.50;7.30;;;;;;;;;;4968251;28;20252;-37
2022/04/30 03:56:00;;;;;;;11.17;7.33;;;;;;;;;;4967400;28;20625;-37
2022/04/30 03:58:27;;;;;;;10.47;7.77;;;;;;;;;;4964919;28;20543;-37
2022/04/30 04:00:54;;;;;;;12.73;7.50;;;;;;;;;;4964235;28;20428;-37
2022/04/30 04:03:20;;;;;;;10.17;7.13;;;;;;;;;;4967713;28;21369;-37
2022/04/30 04:05:48;;;;;;;11.23;7.33;;;;;;;;;;4966651;28;20424;-37
2022/04/30 04:08:15;;;;;;;10.83;7.33;;;;;;;;;;4965011;28;20189;-37
2022/04/30 04:10:41;;;;;;;13.00;7.57;;;;;;;;;;4962828;28;21474;-37
2022/04/30 04:18:37;;;;;;;9.80;7.53;;;;;;;;;;4961717;28;20486;-37
2022/04/30 04:21:03;;;;;;;10.00;6.73;;;;;;;;;;4965182;28;21490;-37
2022/04/30 04:25:58;;;;;;;13.17;7.70;;;;;;;;;;4964792;28;20185;-37
2022/04/30 04:26:15;;;;;;;11.17;6.63;;;;;;;;;;4963382;28;20216;-37
2022/04/30 04:28:41;;;;;;;10.00;7.23;;;;;;;;;;4965410;28;20446;-37
2022/04/30 04:31:07;;;;;;;16.13;8.03;;;;;;;;;;4965789;28;20416;-37
2022/04/30 04:33:33;;;;;;;17.60;8.53;;;;;;;;;;4962858;28;21542;-37
2022/04/30 04:35:59;;;;;;;10.77;6.37;;;;;;;;;;4971167;28;20498;-37
2022/04/30 04:38:25;;;;;;;11.03;6.57;;;;;;;;;;4968429;28;20201;-37
2022/04/30 04:40:51;;;;;;;9.27;6.57;;;;;;;;;;4966635;28;20467;-37
2022/04/30 04:43:17;;;;;;;10.03;5.97;;;;;;;;;;4967266;28;20244;-36
2022/04/30 04:45:44;;;;;;;12.13;6.17;;;;;;;;;;4966257;28;21015;-38
2022/04/30 04:48:10;;;;;;;9.37;6.20;;;;;;;;;;4966709;28;20209;-37
2022/04/30 04:50:38;;;;;;;10.37;5.53;;;;;;;;;;4967376;28;20974;-37
2022/04/30 04:53:05;;;;;;;8.40;5.40;;;;;;;;;;4966824;28;20212;-37
2022/04/30 04:55:31;;;;;;;11.40;5.70;;;;;;;;;;4966157;28;20190;-37
2022/04/30 04:57:57;;;;;;;8.70;5.17;;;;;;;;;;4962847;28;20189;-35
2022/04/30 05:00:23;;;;;;;11.57;6.30;;;;;;;;;;4965064;28;20436;-35
2022/04/30 05:02:49;;;;;;;9.27;5.40;;;;;;;;;;4964778;28;20182;-36
2022/04/30 05:05:15;;;;;;;8.20;5.40;;;;;;;;;;4964753;28;20280;-36
2022/04/30 05:07:41;;;;;;;11.03;5.60;;;;;;;;;;4964829;28;20201;-35
2022/04/30 05:10:08;;;;;;;8.77;5.17;;;;;;;;;;4965152;28;20269;-35
2022/04/30 05:12:34;;;;;;;8.23;5.40;;;;;;;;;;4966289;28;20174;-35
2022/04/30 05:15:00;;;;;;;8.40;5.20;;;;;;;;;;4962557;28;20184;-36
2022/04/30 05:17:26;;;;;;;6.60;5.23;;;;;;;;;;4964239;28;20198;-35
2022/04/30 05:19:52;;;;;;;9.70;5.10;;;;;;;;;;4966202;28;20193;-35
2022/04/30 05:22:18;;;;;;;11.10;5.67;;;;;;;;;;4964863;28;20260;-35
2022/04/30 05:24:45;;;;;;;7.60;5.77;;;;;;;;;;4962887;28;20189;-36
2022/04/30 05:27:11;;;;;;;11.10;6.00;;;;;;;;;;4961165;28;20301;-36
2022/04/30 05:29:37;;;;;;;8.00;5.23;;;;;;;;;;4965717;28;20170;-36
2022/04/30 05:32:04;;;;;;;8.00;5.43;;;;;;;;;;4963148;28;20178;-36
2022/04/30 05:34:30;;;;;;;8.90;5.63;;;;;;;;;;4968715;28;21039;-36
2022/04/30 05:36:57;;;;;;;11.23;5.50;;;;;;;;;;4965313;28;21197;-36
2022/04/30 05:39:23;;;;;;;7.50;5.40;;;;;;;;;;4965854;28;20990;-36
2022/04/30 05:41:49;;;;;;;13.77;6.00;;;;;;;;;;4966428;28;20186;-37
2022/04/30 05:44:15;;;;;;;9.03;6.23;;;;;;;;;;4969406;28;20184;-37
2022/04/30 05:46:41;;;;;;;8.30;5.37;;;;;;;;;;4963456;28;20237;-36
2022/04/30 05:49:07;;;;;;;10.73;5.53;;;;;;;;;;4964395;28;21116;-37
2022/04/30 05:51:34;;;;;;;11.90;5.80;;;;;;;;;;4966690;28;20228;-37
2022/04/30 05:54:00;;;;;;;8.40;5.80;;;;;;;;;;4967775;28;20174;-36
2022/04/30 05:56:27;;;;;;;13.17;5.13;;;;;;;;;;4965329;28;21064;-36
2022/04/30 05:58:54;;;;;;;11.50;5.70;;;;;;;;;;4963146;28;20207;-36
2022/04/30 06:01:20;;;;;;;8.17;5.87;;;;;;;;;;4969299;28;20982;-36
2022/04/30 06:03:46;;;;;;;7.20;5.67;;;;;;;;;;4961714;28;20179;-36
2022/04/30 06:06:12;;;;;;;7.63;5.40;;;;;;;;;;4962362;28;21127;-37
2022/04/30 06:08:38;;;;;;;7.50;5.40;;;;;;;;;;4963624;28;20169;-36
2022/04/30 06:11:04;;;;;;;7.43;5.10;;;;;;;;;;4966789;28;20185;-37
2022/04/30 06:13:30;;;;;;;11.17;5.50;;;;;;;;;;4963827;28;20220;-37
2022/04/30 06:15:56;;;;;;;9.03;5.43;;;;;;;;;;4963139;28;20193;-37
2022/04/30 06:18:25;;;;;;;9.53;5.17;;;;;;;;;;4961613;28;20198;-36
2022/04/30 06:20:51;;;;;;;5.67;4.60;;;;;;;;;;4960090;28;20178;-36
2022/04/30 06:23:17;;;;;;;7.20;4.73;;;;;;;;;;4962494;28;20177;-36
2022/04/30 06:25:45;;;;;;;13.43;5.73;;;;;;;;;;4962296;28;20185;-36
2022/04/30 06:28:12;;;;;;;8.50;5.00;;;;;;;;;;4964735;28;20258;-36
2022/04/30 06:30:39;;;;;;;7.17;4.87;;;;;;;;;;4966324;28;20252;-36
2022/04/30 06:33:05;;;;;;;7.40;4.30;;;;;;;;;;4963739;28;20284;-36
2022/04/30 06:35:32;;;;;;;5.40;4.40;;;;;;;;;;4961827;28;20886;-36
2022/04/30 06:37:58;;;;;;;6.97;3.90;;;;;;;;;;4963493;28;20196;-36
2022/04/30 06:40:24;;;;;;;5.63;4.40;;;;;;;;;;4965934;28;20279;-37
2022/04/30 06:42:50;;;;;;;10.27;4.50;;;;;;;;;;4964076;28;20181;-36
2022/04/30 06:45:17;;;;;;;6.33;4.60;;;;;;;;;;4960224;28;21050;-37
2022/04/30 06:47:43;;;;;;;9.00;5.00;;;;;;;;;;4964651;28;20201;-37
2022/04/30 06:50:10;;;;;;;6.03;4.43;;;;;;;;;;4961775;28;21018;-37
2022/04/30 06:58:08;;;;;;;7.20;4.60;;;;;;;;;;4945603;28;20182;-37
2022/04/30 07:03:22;;;;;;;7.83;4.67;;;;;;;;;;4969141;28;20299;-37
2022/04/30 07:05:49;;;;;;;5.77;4.83;;;;;;;;;;4969079;28;20253;-37
2022/04/30 07:08:15;;;;;;;7.27;4.63;;;;;;;;;;4965148;28;20356;-37
2022/04/30 07:10:41;;;;;;;8.30;4.60;;;;;;;;;;4965913;28;20221;-37
2022/04/30 07:13:07;;;;;;;11.70;4.53;;;;;;;;;;4969355;28;20174;-37
2022/04/30 07:15:33;;;;;;;6.57;4.43;;;;;;;;;;4960264;28;20177;-37
2022/04/30 07:17:59;;;;;;;6.80;5.20;;;;;;;;;;4960061;28;20610;-37
2022/04/30 07:20:25;;;;;;;8.47;5.40;;;;;;;;;;4968029;28;20247;-37
2022/04/30 07:22:52;;;;;;;7.47;4.80;;;;;;;;;;4967459;28;20182;-37
2022/04/30 07:25:19;;;;;;;8.43;5.53;;;;;;;;;;4965782;28;20461;-37
2022/04/30 07:27:45;;;;;;;9.07;6.33;;;;;;;;;;4966497;28;20315;-37
2022/04/30 07:30:11;;;;;;;12.70;6.30;;;;;;;;;;4965918;28;20932;-35
2022/04/30 07:32:40;;;;;;;13.83;6.87;;;;;;;;;;4966672;28;20173;-35
2022/04/30 07:35:07;;;;;;;14.47;6.93;;;;;;;;;;4965294;28;20170;-36
2022/04/30 07:37:33;;;;;;;9.83;6.97;;;;;;;;;;4965786;28;20193;-36
2022/04/30 07:39:59;;;;;;;11.10;7.57;;;;;;;;;;4965393;28;20182;-36
2022/04/30 07:42:25;;;;;;;13.17;7.80;;;;;;;;;;4968230;28;20264;-36
2022/04/30 07:44:51;;;;;;;11.53;7.07;;;;;;;;;;4971808;28;20212;-36
2022/04/30 07:47:17;;;;;;;10.47;7.03;;;;;;;;;;4968163;28;20200;-36
2022/04/30 07:49:44;;;;;;;10.87;6.37;;;;;;;;;;4966903;28;20248;-36
2022/04/30 07:52:10;;;;;;;12.13;6.63;;;;;;;;;;4966367;28;20176;-36
2022/04/30 07:54:36;;;;;;;11.47;6.90;;;;;;;;;;4968079;28;20162;-37
2022/04/30 07:57:03;;;;;;;9.37;6.63;;;;;;;;;;4969688;28;20169;-37
2022/04/30 07:59:29;;;;;;;11.47;7.17;;;;;;;;;;4968849;28;20964;-37
2022/04/30 08:01:55;;;;;;;11.33;7.23;;;;;;;;;;4966027;28;20598;-36
2022/04/30 08:04:21;;;;;;;14.67;7.70;;;;;;;;;;4966988;28;20211;-37
2022/04/30 08:06:47;;;;;;;8.70;6.13;;;;;;;;;;4965872;28;20186;-37
2022/04/30 08:09:13;;;;;;;10.43;5.77;;;;;;;;;;4967672;28;21314;-37
2022/04/30 08:11:41;;;;;;;10.37;5.47;;;;;;;;;;4968575;28;20178;-37
2022/04/30 08:14:07;;;;;;;8.33;5.33;;;;;;;;;;4963380;28;20180;-37
2022/04/30 08:16:33;;;;;;;10.07;5.17;;;;;;;;;;4966950;28;20233;-37
2022/04/30 08:18:59;;;;;;;10.43;5.90;;;;;;;;;;4965261;28;20753;-36
2022/04/30 08:21:26;;;;;;;12.30;6.83;;;;;;;;;;4966536;28;20173;-37
2022/04/30 08:23:52;;;;;;;8.33;6.40;;;;;;;;;;4966795;28;20181;-37
2022/04/30 08:26:18;;;;;;;9.37;6.47;;;;;;;;;;4965054;28;20206;-37
2022/04/30 08:28:44;;;;;;;12.30;7.40;;;;;;;;;;4967307;28;20180;-37
2022/04/30 08:31:11;;;;;;;10.17;6.93;;;;;;;;;;4966811;28;20177;-37
2022/04/30 08:33:37;;;;;;;10.47;7.47;;;;;;;;;;4959983;28;20169;-37
2022/04/30 08:36:04;;;;;;;12.57;7.67;;;;;;;;;;4958337;28;20166;-37
2022/04/30 08:38:30;;;;;;;11.87;8.07;;;;;;;;;;4962890;28;20860;-38
2022/04/30 08:40:56;;;;;;;12.67;7.47;;;;;;;;;;4962766;28;20197;-35
2022/04/30 08:43:22;;;;;;;11.30;7.07;;;;;;;;;;4960685;28;20176;-36
2022/04/30 08:45:48;;;;;;;12.63;7.23;;;;;;;;;;4954827;28;20180;-36
2022/04/30 08:48:15;;;;;;;9.97;6.37;;;;;;;;;;4962978;28;20206;-37
2022/04/30 08:50:43;;;;;;;8.40;6.13;;;;;;;;;;4962452;28;20181;-36
2022/04/30 08:53:09;;;;;;;12.43;7.53;;;;;;;;;;4961248;28;20181;-37
2022/04/30 08:55:35;;;;;;;10.93;7.47;;;;;;;;;;4964257;28;21414;-37
2022/04/30 08:58:02;;;;;;;13.97;8.00;;;;;;;;;;4962410;28;20380;-37
2022/04/30 09:00:28;;;;;;;10.43;7.40;;;;;;;;;;4963545;28;21052;-37
2022/04/30 09:02:56;;;;;;;13.07;7.40;;;;;;;;;;4954401;28;20273;-38
2022/04/30 09:05:23;;;;;;;10.23;6.90;;;;;;;;;;4953554;28;20212;-37
2022/04/30 09:07:56;;;;;;;10.23;6.33;;;;;;;;;;4957160;28;20201;-38
2022/04/30 09:10:23;;;;;;;10.67;6.37;;;;;;;;;;4959084;28;20178;-38
2022/04/30 09:12:49;;;;;;;11.73;6.47;;;;;;;;;;4953248;28;20205;-38
2022/04/30 09:15:16;;;;;;;9.47;6.57;;;;;;;;;;4956107;28;20283;-38
2022/04/30 09:17:42;;;;;;;11.27;7.57;;;;;;;;;;4958950;28;20267;-37
2022/04/30 09:20:08;;;;;;;9.93;7.23;;;;;;;;;;4960340;28;20345;-37
2022/04/30 09:22:35;;;;;;;13.23;7.57;;;;;;;;;;4956767;28;20185;-37
2022/04/30 09:25:07;;;;;;;11.73;7.03;;;;;;;;;;4959018;28;20808;-37
2022/04/30 09:27:33;;;;;;;13.40;7.73;;;;;;;;;;4958715;28;20197;-38
2022/04/30 09:29:59;;;;;;;12.50;8.73;;;;;;;;;;4962736;28;20177;-37
2022/04/30 09:32:27;;;;;;;15.00;8.30;;;;;;;;;;4958095;28;20177;-37
2022/04/30 09:37:42;;;;;;;14.20;8.17;;;;;;;;;;4962325;28;20216;-37
2022/04/30 09:40:14;;;;;;;9.07;6.87;;;;;;;;;;4961174;28;20236;-38
2022/04/30 09:42:43;;;;;;;7.33;4.90;;;;;;;;;;4957282;28;20992;-37
2022/04/30 09:45:10;;;;;;;7.13;5.43;;;;;;;;;;4961596;28;20287;-37
2022/04/30 09:47:36;;;;;;;8.73;5.33;;;;;;;;;;4958170;28;20819;-39
2022/04/30 09:55:34;;;;;;;4.93;3.97;;;;;;;;;;4958787;28;20971;-37
2022/04/30 09:58:04;;;;;;;7.37;4.30;;;;;;;;;;4962487;28;20240;-37
2022/04/30 10:00:33;;;;;;;5.93;4.40;;;;;;;;;;4963095;28;20173;-36
2022/04/30 10:03:01;;;;;;;5.03;3.97;;;;;;;;;;4962727;28;20276;-36
2022/04/30 10:05:36;;;;;;;6.80;4.67;;;;;;;;;;4960073;28;20265;-36
2022/04/30 10:08:02;;;;;;;6.30;4.13;;;;;;;;;;4957892;28;20204;-36
2022/04/30 10:10:31;;;;;;;5.90;4.03;;;;;;;;;;4961107;28;20174;-37
2022/04/30 10:13:19;;;;;;;6.10;4.30;;;;;;;;;;4961746;28;20179;-37
2022/04/30 10:15:52;;;;;;;4.40;4.00;;;;;;;;;;4956192;28;20239;-37
2022/04/30 10:18:20;;;;;;;9.03;3.90;;;;;;;;;;4960137;28;20170;-37
2022/04/30 10:20:56;;;;;;;5.77;4.30;;;;;;;;;;4959513;28;20185;-37
2022/04/30 10:23:22;;;;;;;7.33;4.27;;;;;;;;;;4958807;28;20177;-36
2022/04/30 10:25:48;;;;;;;4.90;3.50;;;;;;;;;;4963409;28;20184;-36
2022/04/30 10:28:17;;;;;;;4.30;3.60;;;;;;;;;;4960438;28;20324;-36
2022/04/30 10:30:58;;;;;;;5.00;3.40;;;;;;;;;;4960198;28;20170;-36
2022/04/30 10:33:25;;;;;;;5.33;3.80;;;;;;;;;;4957518;28;20272;-36
2022/04/30 10:35:51;;;;;;;4.83;3.77;;;;;;;;;;4961600;28;20178;-36
2022/04/30 10:38:21;;;;;;;6.70;3.50;;;;;;;;;;4962442;28;20193;-36
2022/04/30 10:40:51;;;;;;;6.23;4.17;;;;;;;;;;4959527;28;20985;-35
2022/04/30 10:43:18;;;;;;;5.93;4.17;;;;;;;;;;4959482;28;21035;-35
2022/04/30 10:45:44;;;;;;;6.60;4.23;;;;;;;;;;4962828;28;20392;-35
2022/04/30 10:48:10;;;;;;;6.77;4.43;;;;;;;;;;4959192;28;20193;-35
2022/04/30 10:50:37;;;;;;;7.07;4.20;;;;;;;;;;4960230;28;20188;-35
2022/04/30 10:53:03;;;;;;;8.27;4.70;;;;;;;;;;4957336;28;20170;-35
2022/04/30 10:55:30;;;;;;;6.67;4.20;;;;;;;;;;4962440;28;20170;-35
2022/04/30 10:57:56;;;;;;;4.73;3.83;;;;;;;;;;4961363;28;20183;-36
2022/04/30 11:00:22;;;;;;;5.60;3.77;;;;;;;;;;4960636;28;20267;-36
2022/04/30 11:02:49;;;;;;;4.47;3.43;;;;;;;;;;4956239;28;20207;-36
2022/04/30 11:05:25;;;;;;;4.90;3.37;;;;;;;;;;4961777;28;20510;-35
2022/04/30 11:07:51;;;;;;;5.23;3.50;;;;;;;;;;4957755;28;20193;-35
2022/04/30 11:10:18;;;;;;;6.93;3.50;;;;;;;;;;4956982;28;20174;-35
2022/04/30 11:12:44;;;;;;;6.53;4.03;;;;;;;;;;4963570;28;20169;-36
2022/04/30 11:15:11;;;;;;;6.43;3.73;;;;;;;;;;4960068;28;20187;-36
2022/04/30 11:17:48;;;;;;;6.27;3.60;;;;;;;;;;4954492;28;20197;-35
2022/04/30 11:20:24;;;;;;;5.23;3.47;;;;;;;;;;4958623;28;20244;-35
2022/04/30 11:22:56;;;;;;;4.83;3.43;;;;;;;;;;4960091;28;21012;-35
2022/04/30 11:25:23;;;;;;;4.50;3.40;;;;;;;;;;4962131;28;20922;-35
2022/04/30 11:27:57;;;;;;;5.10;3.77;;;;;;;;;;4957018;28;20311;-35
2022/04/30 11:30:23;;;;;;;4.53;3.47;;;;;;;;;;4959381;28;20296;-35
2022/04/30 11:32:49;;;;;;;5.07;3.93;;;;;;;;;;4964079;28;20232;-35
2022/04/30 11:35:19;;;;;;;7.40;4.33;;;;;;;;;;4960501;28;20228;-35
2022/04/30 11:37:45;;;;;;;6.50;4.30;;;;;;;;;;4960309;28;20255;-35
2022/04/30 11:40:12;;;;;;;5.33;4.00;;;;;;;;;;4958514;28;20182;-35
2022/04/30 11:42:38;;;;;;;6.40;4.17;;;;;;;;;;4959064;28;20181;-35
2022/04/30 11:45:05;;;;;;;10.90;4.20;;;;;;;;;;4959026;28;20174;-35
2022/04/30 11:47:31;;;;;;;7.70;4.30;;;;;;;;;;4955659;28;20305;-36
2022/04/30 11:50:04;;;;;;;5.60;3.90;;;;;;;;;;4957807;28;21049;-36
2022/04/30 11:52:30;;;;;;;6.73;4.13;;;;;;;;;;4962908;28;20232;-36
2022/04/30 11:54:57;;;;;;;4.40;3.70;;;;;;;;;;4960974;28;20296;-35
2022/04/30 11:57:23;;;;;;;4.90;3.77;;;;;;;;;;4963491;28;20186;-35
2022/04/30 11:59:49;;;;;;;9.10;4.73;;;;;;;;;;4965126;28;20174;-36
2022/04/30 12:02:16;;;;;;;5.70;4.07;;;;;;;;;;4958477;28;20220;-35
2022/04/30 12:04:43;;;;;;;6.93;3.87;;;;;;;;;;4961407;28;20186;-36
2022/04/30 12:07:10;;;;;;;6.80;3.87;;;;;;;;;;4961616;28;21261;-36
2022/04/30 12:09:37;;;;;;;7.30;4.40;;;;;;;;;;4960785;28;20178;-36
2022/04/30 12:12:16;;;;;;;5.27;4.13;;;;;;;;;;4960940;28;20800;-35
2022/04/30 12:14:46;;;;;;;6.43;4.07;;;;;;;;;;4959821;28;20209;-36
2022/04/30 12:17:12;;;;;;;5.20;3.83;;;;;;;;;;4957682;28;20614;-36
2022/04/30 12:25:12;;;;;;;4.60;4.10;;;;;;;;;;4954764;28;20239;-36
2022/04/30 12:27:40;;;;;;;4.97;3.93;;;;;;;;;;4952171;28;21733;-36
2022/04/30 12:30:15;;;;;;;5.07;3.70;;;;;;;;;;4956555;28;20188;-36
2022/04/30 12:32:48;;;;;;;7.27;4.03;;;;;;;;;;4961662;28;21086;-36
2022/04/30 12:35:15;;;;;;;8.00;4.27;;;;;;;;;;4960435;28;21971;-36
2022/04/30 12:37:41;;;;;;;8.50;4.27;;;;;;;;;;4954306;28;21007;-36
2022/04/30 12:40:08;;;;;;;6.43;3.77;;;;;;;;;;4957339;28;20947;-36
2022/04/30 12:42:34;;;;;;;5.30;3.57;;;;;;;;;;4963858;28;20208;-37
2022/04/30 12:45:00;;;;;;;6.23;3.97;;;;;;;;;;4957593;28;20919;-36
2022/04/30 12:47:27;;;;;;;6.47;3.57;;;;;;;;;;4955685;28;20197;-37
2022/04/30 12:49:53;;;;;;;4.87;3.33;;;;;;;;;;4961746;28;20198;-36
2022/04/30 12:52:19;;;;;;;5.67;4.20;;;;;;;;;;4961988;28;20205;-36
2022/04/30 12:54:45;;;;;;;7.67;3.97;;;;;;;;;;4960129;28;20399;-36
2022/04/30 12:57:11;;;;;;;6.03;3.77;;;;;;;;;;4954146;28;20215;-36
2022/04/30 12:59:37;;;;;;;7.30;3.70;;;;;;;;;;4963272;28;20174;-37
2022/04/30 13:02:04;;;;;;;6.00;4.60;;;;;;;;;;4961207;28;20185;-36
2022/04/30 13:04:31;;;;;;;8.63;4.63;;;;;;;;;;4960000;28;20169;-36
2022/04/30 13:06:57;;;;;;;6.33;4.17;;;;;;;;;;4953923;28;20208;-36
2022/04/30 13:14:53;;;;;;;7.33;4.20;;;;;;;;;;4958419;28;20188;-37
2022/04/30 13:17:19;;;;;;;4.70;3.57;;;;;;;;;;4957822;28;20181;-36
2022/04/30 13:19:45;;;;;;;7.13;4.20;;;;;;;;;;4959975;28;20182;-37
2022/04/30 13:22:11;;;;;;;5.63;4.40;;;;;;;;;;4963117;28;20169;-37
2022/04/30 13:24:37;;;;;;;7.63;3.97;;;;;;;;;;4958344;28;20181;-36
2022/04/30 13:27:03;;;;;;;9.20;4.03;;;;;;;;;;4958009;28;20198;-36
2022/04/30 13:29:31;;;;;;;6.03;4.13;;;;;;;;;;4961756;28;20180;-37
2022/04/30 13:31:57;;;;;;;5.37;4.10;;;;;;;;;;4957650;28;20373;-37
2022/04/30 13:34:23;;;;;;;5.13;3.60;;;;;;;;;;4958921;28;20169;-37
2022/04/30 13:36:49;;;;;;;8.00;4.10;;;;;;;;;;4959884;28;21355;-36
2022/04/30 13:39:15;;;;;;;7.03;4.00;;;;;;;;;;4961298;28;20227;-35
2022/04/30 13:41:42;;;;;;;4.47;3.70;;;;;;;;;;4965120;28;20212;-36
2022/04/30 13:44:09;;;;;;;4.03;3.30;;;;;;;;;;4959834;28;21211;-36
2022/04/30 13:46:36;;;;;;;6.70;4.10;;;;;;;;;;4959886;28;20538;-36
2022/04/30 13:49:03;;;;;;;8.57;4.73;;;;;;;;;;4988407;28;20196;-35
2022/04/30 13:51:31;;;;;;;4.53;3.90;;;;;;;;;;4956275;28;20765;-36
2022/04/30 13:53:57;;;;;;;4.03;3.30;;;;;;;;;;4957830;28;20236;-36
2022/04/30 13:56:24;;;;;;;5.10;3.93;;;;;;;;;;4956208;28;20173;-36
2022/04/30 13:58:50;;;;;;;5.93;3.87;;;;;;;;;;4958258;28;20208;-36
2022/04/30 14:01:16;;;;;;;5.73;4.00;;;;;;;;;;4962777;28;20212;-36
2022/04/30 14:03:42;;;;;;;6.40;3.80;;;;;;;;;;4959922;28;20276;-37
2022/04/30 14:06:09;;;;;;;6.90;4.13;;;;;;;;;;4960136;28;20174;-37
2022/04/30 14:08:36;;;;;;;6.20;4.30;;;;;;;;;;4959423;28;20248;-38
2022/04/30 14:11:02;;;;;;;6.87;4.10;;;;;;;;;;4953615;28;20169;-36
2022/04/30 14:16:13;;;;;;;5.73;4.13;;;;;;;;;;4959164;28;20361;-36
2022/04/30 14:18:39;;;;;;;8.00;4.93;;;;;;;;;;4956704;28;20170;-36
2022/04/30 14:21:08;;;;;;;5.83;4.57;;;;;;;;;;4958908;28;20174;-36
2022/04/30 14:23:35;;;;;;;4.80;3.90;;;;;;;;;;4952363;28;20174;-36
2022/04/30 14:26:02;;;;;;;6.47;3.90;;;;;;;;;;4951148;28;21149;-38
2022/04/30 14:28:28;;;;;;;6.93;4.07;;;;;;;;;;4946764;28;20249;-36
2022/04/30 14:30:54;;;;;;;4.40;4.00;;;;;;;;;;4956906;28;20174;-36
2022/04/30 14:33:21;;;;;;;7.67;4.40;;;;;;;;;;4959010;28;21054;-36
2022/04/30 14:35:48;;;;;;;5.50;3.83;;;;;;;;;;4959660;28;20171;-36
2022/04/30 14:38:15;;;;;;;7.63;4.10;;;;;;;;;;4956539;28;20189;-36
2022/04/30 14:40:44;;;;;;;6.10;4.63;;;;;;;;;;4960023;28;20329;-36
2022/04/30 14:43:11;;;;;;;7.30;4.73;;;;;;;;;;4959079;28;20181;-35
2022/04/30 14:45:41;;;;;;;5.53;3.73;;;;;;;;;;4958596;28;20181;-36
2022/04/30 14:48:08;;;;;;;5.43;3.60;;;;;;;;;;4953261;28;20212;-36
2022/04/30 14:50:35;;;;;;;6.23;5.20;;;;;;;;;;4960649;28;21113;-36
2022/04/30 14:53:01;;;;;;;7.40;4.30;;;;;;;;;;4959406;28;20205;-37
2022/04/30 14:55:28;;;;;;;8.90;4.20;;;;;;;;;;4963386;28;20206;-37
2022/04/30 14:57:54;;;;;;;5.73;4.30;;;;;;;;;;4957981;28;20208;-37
2022/04/30 15:00:21;;;;;;;5.03;3.87;;;;;;;;;;4958434;28;20252;-37
2022/04/30 15:02:47;;;;;;;6.13;4.37;;;;;;;;;;4958924;28;20189;-37
2022/04/30 15:05:14;;;;;;;5.27;4.17;;;;;;;;;;4960053;28;20185;-37
2022/04/30 15:07:40;;;;;;;7.40;4.03;;;;;;;;;;4960992;28;20213;-37
2022/04/30 15:10:07;;;;;;;6.20;4.70;;;;;;;;;;4961271;28;20255;-37
2022/04/30 15:12:34;;;;;;;8.20;4.40;;;;;;;;;;4958782;28;20329;-37
2022/04/30 15:15:00;;;;;;;6.40;4.03;;;;;;;;;;4963467;28;21102;-37
2022/04/30 15:17:27;;;;;;;5.33;3.90;;;;;;;;;;4962982;28;21041;-37
2022/04/30 15:19:53;;;;;;;4.37;3.80;;;;;;;;;;4961772;28;20308;-37
2022/04/30 15:22:19;;;;;;;6.33;4.13;;;;;;;;;;4960654;28;21153;-37
2022/04/30 15:24:46;;;;;;;8.03;4.70;;;;;;;;;;4961381;28;20209;-36
2022/04/30 15:27:13;;;;;;;6.20;4.27;;;;;;;;;;4962211;28;20244;-37